NEODyS-2

Near Earth Objects - Dynamic Site
NEODyS ∴ Observatories ∴ Site 691 ∴ Obs & residuals
Contact »
691  ▹ 
OBSERVATIONS AND RESIDUALS

691-Steward Observatory, Kitt Peak-Spacewatch

Detections | Residuals | Detections & Residuals

[1-200] [201-400] [401-600] [601-800] [801-1000] [1001-1200] [1201-1400] [1401-1600] [1601-1800] [1801-2000] [2001-2200] [2201-2400] [2401-2600] [2601-2800] [2801-3000] [3001-3200] [3201-3400] [3401-3600] [3601-3800] [3801-4000] [4001-4200] [4201-4400] [4401-4600] [4601-4800] [4801-5000] [5001-5200] [5201-5400] [5401-5600] [5601-5800] [5801-6000] [6001-6200] [6201-6400] [6401-6600] [6601-6800] [6801-7000] [7001-7200] [7201-7400] [7401-7600] [7601-7800] [7801-8000] [8001-8200] [8201-8400] [8401-8600] [8601-8800] [8801-9000] [9001-9200] [9201-9400] [9401-9600] [9601-9800] [9801-10000] [10001-10200] [10201-10400] [10401-10600] [10601-10800] [10801-11000] [11001-11200] [11201-11400] [11401-11600] [11601-11800] [11801-12000] [12001-12200] [12201-12400] [12401-12600] [12601-12800] [12801-13000] [13001-13200] [13201-13400] [13401-13600] [13601-13800] [13801-14000] [14001-14200] [14201-14400] [14401-14600] [14601-14800] [14801-15000] [15001-15200] [15201-15400] [15401-15600] [15601-15800] [15801-16000] [16001-16200] [16201-16400] [16401-16600] [16601-16800] [16801-17000] [17001-17200] [17201-17400] [17401-17600] [17601-17800] [17801-18000] [18001-18200] [18201-18400] [18401-18600] [18601-18800] [18801-19000] [19001-19200] [19201-19400] [19401-19600] [19601-19800] [19801-20000] [20001-20200] [20201-20400] [20401-20600] [20601-20800] [20801-21000] [21001-21200] [21201-21400] [21401-21600] [21601-21800] [21801-22000] [22001-22200] [22201-22400] [22401-22600] [22601-22800] [22801-23000] [23001-23200] [23201-23400] [23401-23600] [23601-23800] [23801-24000] [24001-24200] [24201-24400] [24401-24600] [24601-24800] [24801-25000] [25001-25200] [25201-25400] [25401-25600] [25601-25800] [25801-26000] [26001-26200] [26201-26400] [26401-26600] [26601-26800] [26801-27000] [27001-27200] [27201-27400] [27401-27600] [27601-27800] [27801-28000] [28001-28200] [28201-28400] [28401-28600] [28601-28800] [28801-29000] [29001-29200] [29201-29400] [29401-29600] [29601-29800] [29801-30000] [30001-30200] [30201-30400] [30401-30600] [30601-30800] [30801-31000] [31001-31200] [31201-31400] [31401-31600] [31601-31800] [31801-32000] [32001-32200] [32201-32400] [32401-32600] [32601-32800] [32801-33000] [33001-33200] [33201-33400] [33401-33600] [33601-33800] [33801-34000] [34001-34200] [34201-34400] [34401-34600] [34601-34800] [34801-35000] [35001-35200] [35201-35400] [35401-35600] [35601-35800] [35801-36000] [36001-36200] [36201-36400] [36401-36600] [36601-36800] [36801-37000] [37001-37200] [37201-37400] [37401-37600] [37601-37800] [37801-38000] [38001-38200] [38201-38400] [38401-38600] [38601-38800] [38801-39000] [39001-39200] [39201-39400] [39401-39600] [39601-39800] [39801-40000] [40001-40200] [40201-40400] [40401-40600] [40601-40800] [40801-41000] [41001-41200] [41201-41400] [41401-41600] [41601-41800] [41801-42000] [42001-42200] [42201-42400] [42401-42600] [42601-42800] [42801-43000] [43001-43200] [43201-43400] [43401-43600] [43601-43800] [43801-44000] [44001-44200] [44201-44400] [44401-44600] [44601-44800] [44801-45000] [45001-45200] [45201-45400] [45401-45600] [45601-45800] [45801-46000] [46001-46200] [46201-46400] [46401-46600] [46601-46800] [46801-47000] [47001-47200] [47201-47400] [47401-47600] [47601-47800] [47801-48000] [48001-48200] [48201-48400] [48401-48600] [48601-48800] [48801-49000] [49001-49200] [49201-49400] [49401-49600] [49601-49800] [49801-50000] [50001-50200] [50201-50388]

Designation T Tech N Date Right Ascension Declination Apparent Magnitude Star Catalog Site code χ Used A Used M
yr-mo-day precision hr:min:sec precision rms F bias residual deg min sec precision rms F bias residual mag/col rms residual
2017TW3 O C K 2017-10-27.27889 1.000E-05 01:03:37.910 1.500E-01 0.500 F -0.106 -0.148 +06° 32' 16.60" 1.000E-01 0.500 F 0.329 0.185 18.4 R 0.70 -1.02 o 691 0.49 Yes Yes
2017TZ3 O C K 2017-10-27.28271 1.000E-05 01:21:33.500 1.500E-01 0.500 F -0.130 0.252 -09° 11' 40.00" 1.000E-01 0.500 F 0.117 -0.148 o 691 0.60 Yes No
2013UM9 O C H 2017-10-27.28624 1.000E-05 01:20:24.700 1.500E-01 0.500 F -0.054 -0.009 +03° 11' 44.80" 1.000E-01 0.500 F 0.283 -0.157 19.2 R 0.70 0.15 o 691 0.32 Yes Yes
2017PB27 O C H 2017-10-27.28921 1.000E-05 01:13:39.080 1.500E-01 0.500 F -0.172 -0.045 +28° 34' 03.20" 1.000E-01 0.500 F 0.154 0.336 20.8 R 0.70 0.81 o 691 0.69 Yes Yes
2017TW3 O C K 2017-10-27.29188 1.000E-05 01:03:36.690 1.500E-01 0.500 F -0.106 0.032 +06° 33' 16.60" 1.000E-01 0.500 F 0.329 0.068 18.5 R 0.70 -0.92 o 691 0.15 Yes Yes
2017TZ3 O C K 2017-10-27.29567 1.000E-05 01:21:35.550 1.500E-01 0.500 F -0.130 0.209 -09° 12' 35.30" 1.000E-01 0.500 F 0.117 0.092 o 691 0.47 Yes No
2017PB27 O C 2017-10-27.30214 1.000E-05 01:13:39.170 1.500E-01 0.500 F -0.172 -0.089 +28° 33' 51.20" 1.000E-01 0.500 F 0.154 -0.034 20.5 V 0.70 0.11 o 691 0.19 Yes Yes
2004JB12 O C 2017-10-27.30589 1.000E-05 01:46:12.530 1.500E-01 0.500 F -0.322 -0.551 -09° 44' 52.40" 1.000E-01 0.500 F 0.224 0.083 19.6 V 0.70 0.14 o 691 1.12 Yes Yes
2017SK17 O C K 2017-10-27.30821 1.000E-05 01:47:52.070 1.500E-01 0.500 F -0.322 -0.412 -10° 07' 22.30" 1.000E-01 0.500 F 0.224 -0.202 20.0 R 0.70 -0.19 o 691 0.96 Yes Yes
2013BD74 O C 2017-10-27.30934 1.000E-05 02:01:48.780 1.500E-01 0.500 F -0.382 -0.341 -17° 36' 28.10" 1.000E-01 0.500 F 0.171 -0.203 19.5 V 0.70 0.08 o 691 0.81 Yes Yes
2017TS1 O C K 2017-10-27.31295 1.000E-05 02:05:57.530 1.500E-01 0.500 F -0.278 0.015 +17° 48' 34.00" 1.000E-01 0.500 F 0.169 -0.403 21.1 R 0.70 0.43 o 691 0.87 Yes Yes
2004JB12 O C 2017-10-27.31754 1.000E-05 01:46:11.880 1.500E-01 0.500 F -0.322 -0.363 -09° 44' 51.40" 1.000E-01 0.500 F 0.224 -0.025 20.0 V 0.70 0.54 o 691 0.73 Yes Yes
2017SK17 O C K 2017-10-27.31875 1.000E-05 01:47:48.890 1.500E-01 0.500 F -0.322 0.474 -10° 06' 55.70" 1.000E-01 0.500 F 0.224 -0.371 20.2 R 0.70 0.01 o 691 1.26 Yes Yes
2013BD74 O C 2017-10-27.32108 1.000E-05 02:01:53.460 1.500E-01 0.500 F -0.382 0.007 -17° 37' 36.60" 1.000E-01 0.500 F 0.171 0.075 19.8 V 0.70 0.38 o 691 0.15 Yes Yes
2017TS1 O C K 2017-10-27.32469 1.000E-05 02:05:57.550 1.500E-01 0.500 F -0.278 0.279 +17° 48' 20.00" 1.000E-01 0.500 F 0.169 0.233 20.7 R 0.70 0.03 o 691 0.79 Yes Yes
2004JB12 O C 2017-10-27.32931 1.000E-05 01:46:11.240 1.500E-01 0.500 F -0.322 0.055 -09° 44' 50.10" 1.000E-01 0.500 F 0.224 0.140 19.9 V 0.70 0.44 o 691 0.30 Yes Yes
2013BD74 O C 2017-10-27.33277 1.000E-05 02:01:58.110 1.500E-01 0.500 F -0.382 -0.040 -17° 38' 45.40" 1.000E-01 0.500 F 0.171 -0.335 19.7 V 0.70 0.29 o 691 0.69 Yes Yes
2017TS1 O C K 2017-10-27.33642 1.000E-05 02:05:57.550 1.500E-01 0.500 F -0.278 0.211 +17° 48' 05.10" 1.000E-01 0.500 F 0.169 0.027 21.1 R 0.70 0.43 o 691 0.46 Yes Yes
2017TN6 O C 2017-10-27.35398 1.000E-05 03:19:16.390 1.500E-01 0.500 F -0.269 -0.325 +15° 40' 23.70" 1.000E-01 0.500 F 0.275 -0.301 20.0 V 0.70 0.11 o 691 0.91 Yes Yes
2017TN6 O C 2017-10-27.36704 1.000E-05 03:19:13.320 1.500E-01 0.500 F -0.269 -0.708 +15° 40' 31.70" 1.000E-01 0.500 F 0.275 0.008 20.8 V 0.70 0.91 o 691 1.47 Yes Yes
2017TN6 O C 2017-10-27.37992 1.000E-05 03:19:10.340 1.500E-01 0.500 F -0.269 -0.437 +15° 40' 39.20" 1.000E-01 0.500 F 0.275 -0.026 20.2 V 0.70 0.31 o 691 0.91 Yes Yes
2006VW2 O C K 2017-10-27.39259 1.000E-05 03:56:03.420 1.500E-01 0.500 F -0.120 -0.219 +24° 58' 39.20" 1.000E-01 0.500 F 0.291 0.169 21.0 R 0.70 0.37 o 691 0.56 Yes Yes
2006VW2 O C K 2017-10-27.40780 1.000E-05 03:56:02.540 1.500E-01 0.500 F -0.120 -0.004 +24° 58' 22.60" 1.000E-01 0.500 F 0.291 -0.019 20.9 R 0.70 0.27 o 691 0.04 Yes Yes
2006VW2 O C K 2017-10-27.42309 1.000E-05 03:56:01.650 1.500E-01 0.500 F -0.120 0.119 +24° 58' 06.30" 1.000E-01 0.500 F 0.291 0.260 20.9 R 0.70 0.27 o 691 0.58 Yes Yes
2017TF1 O C K 2017-10-27.43734 1.000E-05 04:55:44.060 1.500E-01 0.500 F -0.116 -0.440 +02° 15' 57.30" 1.000E-01 0.500 F 0.228 -0.179 19.4 R 0.70 -1.59 o 691 0.98 Yes Yes
2017TF1 O C K 2017-10-27.45152 1.000E-05 04:55:45.490 1.500E-01 0.500 F -0.116 0.434 +02° 16' 35.20" 1.000E-01 0.500 F 0.228 -0.460 19.7 R 0.70 -1.29 o 691 1.30 Yes Yes
2017TF1 O C K 2017-10-27.46582 1.000E-05 04:55:46.890 1.500E-01 0.500 F -0.116 0.401 +02° 17' 13.60" 1.000E-01 0.500 F 0.228 -0.485 o 691 1.30 Yes No
2001VC2 O C K 2017-10-27.48269 1.000E-05 08:01:06.480 1.500E-01 0.500 F -0.101 0.314 +12° 07' 14.40" 1.000E-01 0.500 F 0.152 -0.529 20.1 R 0.70 -1.13 o 691 1.23 Yes Yes
2000WK107 O C K 2017-10-27.49034 1.000E-05 08:49:19.000 1.500E-01 0.500 F 0.101 -0.011 -00° 05' 44.00" 1.000E-01 0.500 F 0.095 0.331 o 691 0.67 Yes No
2001VC2 O C K 2017-10-27.50197 1.000E-05 08:01:11.340 1.500E-01 0.500 F -0.101 0.221 +12° 07' 30.90" 1.000E-01 0.500 F 0.152 -0.002 20.1 R 0.70 -1.13 o 691 0.45 Yes Yes
2000WK107 O C K 2017-10-27.50965 1.000E-05 08:49:22.580 1.500E-01 0.500 F 0.101 -0.077 -00° 06' 24.90" 1.000E-01 0.500 F 0.095 -0.199 o 691 0.43 Yes No
2001VC2 O C K 2017-10-27.52128 1.000E-05 08:01:16.190 1.500E-01 0.500 F -0.101 -0.072 +12° 07' 46.40" 1.000E-01 0.500 F 0.152 -0.445 20.2 R 0.70 -1.03 o 691 0.90 Yes Yes
2000WK107 O C K 2017-10-27.52906 1.000E-05 08:49:26.220 1.500E-01 0.500 F 0.101 0.514 -00° 07' 06.00" 1.000E-01 0.500 F 0.095 -0.711 o 691 1.78 Yes No
2012PN28 O C K 2017-10-28.10807 1.000E-05 21:47:09.670 1.500E-01 0.500 F -0.032 -0.788 +16° 45' 48.10" 1.000E-01 0.500 F 0.349 -0.193 o 691 1.64 Yes No
2017SX11 O C K 2017-10-28.11355 1.000E-05 22:04:58.660 1.500E-01 0.500 F -0.027 -0.399 +19° 42' 20.50" 1.000E-01 0.500 F 0.227 -0.102 19.7 R 0.70 -0.89 o 691 0.83 Yes Yes
2012PN28 O C K 2017-10-28.12698 1.000E-05 21:47:09.120 1.500E-01 0.500 F -0.032 0.507 +16° 45' 41.80" 1.000E-01 0.500 F 0.349 0.890 20.8 R 0.70 -0.01 o 691 2.07 Yes Yes
2017SX11 O C K 2017-10-28.13234 1.000E-05 22:04:54.940 1.500E-01 0.500 F -0.027 -0.450 +19° 42' 13.40" 1.000E-01 0.500 F 0.227 0.008 19.4 R 0.70 -1.19 o 691 0.91 Yes Yes
2012PN28 O C K 2017-10-28.14596 1.000E-05 21:47:08.470 1.500E-01 0.500 F -0.032 0.378 +16° 45' 33.60" 1.000E-01 0.500 F 0.349 0.123 21.1 R 0.70 0.29 o 691 0.80 Yes Yes
2017SX11 O C K 2017-10-28.15133 1.000E-05 22:04:51.190 1.500E-01 0.500 F -0.027 -0.392 +19° 42' 05.80" 1.000E-01 0.500 F 0.227 -0.203 o 691 0.89 Yes No
2017TH6 O C K 2017-10-28.16004 1.000E-05 22:27:26.690 1.500E-01 0.500 F 0.067 0.437 +07° 10' 15.00" 1.000E-01 0.500 F 0.338 0.065 19.3 R 0.70 -0.59 o 691 0.90 Yes Yes
2017QL35 O C 2017-10-28.17098 1.000E-05 23:44:05.310 1.500E-01 0.500 F -0.108 -0.140 -07° 01' 40.80" 1.000E-01 0.500 F 0.288 -0.158 o 691 0.43 Yes No
2017TX3 O C 2017-10-28.17098 1.000E-05 23:45:52.020 1.500E-01 0.500 F -0.210 -0.374 -06° 15' 31.90" 1.000E-01 0.500 F 0.340 -0.068 20.2 V 0.70 0.17 o 691 0.76 Yes Yes
2017TH6 O C K 2017-10-28.17307 1.000E-05 22:27:24.490 1.500E-01 0.500 F 0.067 0.270 +07° 10' 15.80" 1.000E-01 0.500 F 0.338 0.566 19.5 R 0.70 -0.39 o 691 1.27 Yes Yes
2017QL35 O C 2017-10-28.18379 1.000E-05 23:44:07.370 1.500E-01 0.500 F -0.108 -0.474 -07° 01' 48.80" 1.000E-01 0.500 F 0.288 0.496 o 691 1.39 Yes No
2017TX3 O C 2017-10-28.18379 1.000E-05 23:45:51.860 1.500E-01 0.500 F -0.210 -0.099 -06° 15' 07.10" 1.000E-01 0.500 F 0.340 -0.156 20.2 V 0.70 0.17 o 691 0.37 Yes Yes
2017TH6 O C K 2017-10-28.18594 1.000E-05 22:27:22.330 1.500E-01 0.500 F 0.067 0.260 +07° 10' 15.50" 1.000E-01 0.500 F 0.338 -0.005 19.2 R 0.70 -0.69 o 691 0.53 Yes Yes
2017QL35 O C 2017-10-28.19651 1.000E-05 23:44:09.440 1.500E-01 0.500 F -0.108 -0.429 -07° 01' 57.60" 1.000E-01 0.500 F 0.288 0.267 o 691 1.02 Yes No
2017TX3 O C 2017-10-28.19651 1.000E-05 23:45:51.690 1.500E-01 0.500 F -0.210 0.013 -06° 14' 42.20" 1.000E-01 0.500 F 0.340 0.012 20.0 V 0.70 -0.03 o 691 0.04 Yes Yes
2017UA8 O C K 2017-10-28.19820 1.000E-05 00:03:38.100 1.500E-01 0.500 F -0.273 -0.217 -10° 19' 03.10" 1.000E-01 0.500 F 0.235 -0.681 21.1 R 0.70 0.35 o 691 1.46 Yes Yes
2017SL14 O C K 2017-10-28.20384 1.000E-05 00:25:33.560 1.500E-01 0.500 F -0.370 -0.278 -10° 47' 52.60" 1.000E-01 0.500 F 0.177 -0.169 o 691 0.66 Yes No
2017UA8 O C K 2017-10-28.21715 1.000E-05 00:03:37.790 1.500E-01 0.500 F -0.273 0.750 -10° 18' 34.60" 1.000E-01 0.500 F 0.235 -0.186 20.6 R 0.70 -0.15 o 691 1.57 Yes Yes
2017SL14 O C K 2017-10-28.22280 1.000E-05 00:25:32.060 1.500E-01 0.500 F -0.370 0.165 -10° 48' 10.80" 1.000E-01 0.500 F 0.177 0.024 o 691 0.34 Yes No
2017UA8 O C K 2017-10-28.23620 1.000E-05 00:03:37.360 1.500E-01 0.500 F -0.273 -0.055 -10° 18' 06.50" 1.000E-01 0.500 F 0.235 -0.289 20.6 R 0.70 -0.15 o 691 0.60 Yes Yes
2017SL14 O C K 2017-10-28.24188 1.000E-05 00:25:30.500 1.500E-01 0.500 F -0.370 -0.138 -10° 48' 29.30" 1.000E-01 0.500 F 0.177 -0.065 o 691 0.31 Yes No
2017TW3 O C K 2017-10-28.26659 1.000E-05 01:02:17.210 1.500E-01 0.500 F -0.167 0.091 +07° 48' 10.10" 1.000E-01 0.500 F 0.396 -0.286 o 691 0.62 Yes No
2017TW3 O C K 2017-10-28.28265 1.000E-05 01:02:15.700 1.500E-01 0.500 F -0.167 -0.350 +07° 49' 24.00" 1.000E-01 0.500 F 0.396 0.004 o 691 0.73 Yes No
2017TW3 O C K 2017-10-28.29894 1.000E-05 01:02:14.250 1.500E-01 0.500 F -0.167 0.348 +07° 50' 38.20" 1.000E-01 0.500 F 0.396 -0.407 o 691 1.11 Yes No
2013UM9 O C K 2017-10-28.30569 1.000E-05 01:22:18.150 1.500E-01 0.500 F -0.239 0.065 +04° 32' 53.60" 1.000E-01 0.500 F 0.295 -0.296 18.1 R 0.70 -1.09 o 691 0.62 Yes Yes
2017TZ3 O C K 2017-10-28.30927 1.000E-05 01:25:15.250 1.500E-01 0.500 F -0.169 0.507 -10° 29' 50.60" 1.000E-01 0.500 F 0.127 -0.294 19.7 R 0.70 -0.14 o 691 1.22 Yes Yes
2017UW42 O C 2017-10-28.31417 1.000E-05 01:28:56.570 1.500E-01 0.500 F -0.221 0.031 +23° 40' 41.50" 1.000E-01 0.500 F 0.348 -0.176 19.8 V 0.70 0.13 o 691 0.36 Yes Yes
2013UM9 O C K 2017-10-28.31845 1.000E-05 01:22:18.940 1.500E-01 0.500 F -0.239 0.132 +04° 33' 50.90" 1.000E-01 0.500 F 0.295 -0.039 18.2 R 0.70 -0.99 o 691 0.28 Yes Yes
2017TZ3 O C K 2017-10-28.32198 1.000E-05 01:25:17.630 1.500E-01 0.500 F -0.169 -0.186 -10° 30' 51.80" 1.000E-01 0.500 F 0.127 -0.120 19.8 R 0.70 -0.04 o 691 0.46 Yes Yes
2017UW42 O C 2017-10-28.32682 1.000E-05 01:28:55.520 1.500E-01 0.500 F -0.221 -0.445 +23° 40' 36.00" 1.000E-01 0.500 F 0.348 -0.317 19.7 V 0.70 0.03 o 691 1.10 Yes Yes
2013UM9 O C K 2017-10-28.33102 1.000E-05 01:22:19.710 1.500E-01 0.500 F -0.239 -0.144 +04° 34' 46.70" 1.000E-01 0.500 F 0.295 -0.293 18.2 R 0.70 -0.99 o 691 0.68 Yes Yes
2017UW42 O C 2017-10-28.33938 1.000E-05 01:28:54.550 1.500E-01 0.500 F -0.221 0.060 +23° 40' 31.00" 1.000E-01 0.500 F 0.348 0.026 19.6 V 0.70 -0.07 o 691 0.13 Yes Yes
2017TN6 O C H 2017-10-28.39038 1.000E-05 03:15:29.610 1.500E-01 0.500 F -0.262 0.428 +15° 50' 12.00" 1.000E-01 0.500 F 0.228 -0.208 20.2 R 0.70 0.69 o 691 0.98 Yes Yes
2017TU6 O C K 2017-10-28.39194 1.000E-05 03:13:40.510 1.500E-01 0.500 F -0.247 -0.071 +14° 23' 23.00" 1.000E-01 0.500 F 0.282 0.399 20.3 R 0.70 -0.71 o 691 0.83 Yes Yes
2017TN6 O C H 2017-10-28.40214 1.000E-05 03:15:26.970 1.500E-01 0.500 F -0.262 0.212 +15° 50' 18.60" 1.000E-01 0.500 F 0.228 0.145 20.0 R 0.70 0.49 o 691 0.53 Yes Yes
2017TN6 O C H 2017-10-28.41368 1.000E-05 03:15:24.400 1.500E-01 0.500 F -0.262 0.236 +15° 50' 24.70" 1.000E-01 0.500 F 0.228 0.152 20.2 R 0.70 0.69 o 691 0.58 Yes Yes
2017TU6 O C K 2017-10-28.41526 1.000E-05 03:13:38.050 1.500E-01 0.500 F -0.247 0.227 +14° 23' 33.00" 1.000E-01 0.500 F 0.282 0.954 20.4 R 0.70 -0.61 o 691 2.00 Yes Yes
2006VW2 O C H 2017-10-28.43059 1.000E-05 03:55:08.130 1.500E-01 0.500 F -0.103 0.567 +24° 39' 38.40" 1.000E-01 0.500 F 0.307 0.107 21.2 R 0.70 0.64 o 691 1.17 Yes Yes
2006VW2 O C H 2017-10-28.44691 1.000E-05 03:55:07.060 1.500E-01 0.500 F -0.103 0.007 +24° 39' 19.70" 1.000E-01 0.500 F 0.307 0.122 21.0 R 0.70 0.44 o 691 0.25 Yes Yes
2000SL O C K 2017-10-29.09057 1.000E-05 17:33:44.230 1.500E-01 0.500 F 0.128 0.129 +05° 20' 08.50" 1.000E-01 0.500 F 0.271 0.050 o 691 0.28 Yes No
2000SL O C K 2017-10-29.09659 1.000E-05 17:33:46.030 1.500E-01 0.500 F 0.128 0.099 +05° 20' 05.30" 1.000E-01 0.500 F 0.271 -0.282 o 691 0.61 Yes No
2000SL O C K 2017-10-29.10262 1.000E-05 17:33:47.820 1.500E-01 0.500 F 0.128 -0.134 +05° 20' 02.70" 1.000E-01 0.500 F 0.271 -0.009 o 691 0.27 Yes No
2002LX64 O C 2017-10-29.16711 1.000E-05 01:00:59.070 1.500E-01 0.500 F -0.157 -0.597 +25° 11' 42.60" 1.000E-01 0.500 F 0.303 0.102 20.2 V 0.70 -0.33 o 691 1.23 Yes Yes
2002LX64 O C 2017-10-29.17076 1.000E-05 01:00:58.190 1.500E-01 0.500 F -0.157 0.046 +25° 11' 39.40" 1.000E-01 0.500 F 0.303 0.009 19.9 V 0.70 -0.63 o 691 0.09 Yes Yes
2002LX64 O C 2017-10-29.17442 1.000E-05 01:00:57.240 1.500E-01 0.500 F -0.157 -0.220 +25° 11' 36.00" 1.000E-01 0.500 F 0.303 -0.270 20.4 V 0.70 -0.13 o 691 0.71 Yes Yes
2017UV42 O C K 2017-10-29.17914 1.000E-05 01:33:58.280 1.500E-01 0.559 F -0.308 -0.342 +17° 48' 18.90" 1.000E-01 0.559 F 0.347 0.017 o 691 0.62 Yes No
2017UV42 O C K 2017-10-29.18429 1.000E-05 01:33:57.330 1.500E-01 0.559 F -0.308 -0.359 +17° 47' 30.10" 1.000E-01 0.559 F 0.347 0.177 o 691 0.72 Yes No
2017UV42 O C K 2017-10-29.18945 1.000E-05 01:33:56.400 1.500E-01 0.559 F -0.308 -0.052 +17° 46' 40.60" 1.000E-01 0.559 F 0.347 -0.252 o 691 0.47 Yes No
2017UJ8 O C K 2017-10-29.19989 1.000E-05 02:46:53.060 1.500E-01 0.500 F -0.191 -0.438 +23° 09' 00.80" 1.000E-01 0.500 F 0.300 -0.526 o 691 1.50 Yes No
2017UV42 O C K 2017-10-29.20393 1.000E-05 01:33:53.710 1.500E-01 0.559 F -0.308 -0.274 +17° 44' 23.10" 1.000E-01 0.559 F 0.347 0.037 o 691 0.50 Yes No
2017UJ8 O C K 2017-10-29.20918 1.000E-05 02:46:48.720 1.500E-01 0.500 F -0.191 -0.731 +23° 10' 51.90" 1.000E-01 0.500 F 0.300 -0.482 o 691 1.90 Yes No
2017UV42 O C K 2017-10-29.21330 1.000E-05 01:33:51.990 1.500E-01 0.559 F -0.308 -0.080 +17° 42' 54.00" 1.000E-01 0.559 F 0.347 0.167 o 691 0.34 Yes No
2017UJ8 O C K 2017-10-29.21870 1.000E-05 02:46:44.290 1.500E-01 0.500 F -0.191 -0.605 +23° 12' 45.50" 1.000E-01 0.500 F 0.300 -0.324 o 691 1.48 Yes No
2007RM133 O C 2017-10-29.23611 1.000E-05 03:27:19.140 1.500E-01 0.500 F -0.180 -0.322 +01° 15' 37.80" 1.000E-01 0.500 F 0.228 0.102 o 691 0.68 Yes No
2007RM133 O C 2017-10-29.24259 1.000E-05 03:27:18.630 1.500E-01 0.500 F -0.180 -0.244 +01° 15' 36.30" 1.000E-01 0.500 F 0.228 -0.188 o 691 0.62 Yes No
2007RM133 O C 2017-10-29.24905 1.000E-05 03:27:18.140 1.500E-01 0.500 F -0.180 0.116 +01° 15' 34.90" 1.000E-01 0.500 F 0.228 -0.382 o 691 0.80 Yes No
2017TZ3 O C 2017-10-29.27629 1.000E-05 01:29:22.300 1.500E-01 0.500 F -0.258 -0.077 -11° 53' 11.80" 1.000E-01 0.500 F 0.189 0.110 19.6 V 0.70 -0.53 o 691 0.28 Yes Yes
2017TZ3 O C 2017-10-29.27964 1.000E-05 01:29:23.060 1.500E-01 0.500 F -0.275 0.032 -11° 53' 30.10" 1.000E-01 0.500 F 0.164 0.237 20.0 V 0.70 -0.13 o 691 0.50 Yes Yes
2017TZ3 O C 2017-10-29.28298 1.000E-05 01:29:23.800 1.500E-01 0.500 F -0.275 -0.147 -11° 53' 48.70" 1.000E-01 0.500 F 0.164 -0.018 19.8 V 0.70 -0.33 o 691 0.31 Yes Yes
2017UC O C K 2017-10-29.30915 1.000E-05 02:53:41.180 1.500E-01 0.500 F -0.261 0.689 +23° 30' 29.90" 1.000E-01 0.500 F 0.255 -0.216 o 691 1.53 Yes No
2017UC O C K 2017-10-29.31534 1.000E-05 02:53:43.720 1.500E-01 0.500 F -0.261 0.683 +23° 30' 42.40" 1.000E-01 0.500 F 0.255 0.969 o 691 2.43 Yes No
2017UY4 O C K 2017-10-29.32281 1.000E-05 00:50:54.930 1.500E-01 0.500 F -0.251 0.183 -04° 28' 40.30" 1.000E-01 0.500 F -0.028 0.242 o 691 0.61 Yes No
2017UY4 O C K 2017-10-29.32931 1.000E-05 00:50:54.610 1.500E-01 0.500 F -0.251 -0.114 -04° 29' 02.70" 1.000E-01 0.500 F -0.028 0.158 o 691 0.39 Yes No
2017UY4 O C K 2017-10-29.33581 1.000E-05 00:50:54.340 1.500E-01 0.500 F -0.251 0.258 -04° 29' 24.90" 1.000E-01 0.500 F -0.028 0.266 o 691 0.75 Yes No
2017UL44 O C H 2017-10-29.36798 1.000E-05 03:53:52.920 1.500E-01 0.500 F -0.312 0.185 -08° 23' 33.60" 1.000E-01 0.500 F 0.167 -0.417 18.6 R 0.70 -0.04 o 691 0.93 Yes Yes
2017UL44 O C H 2017-10-29.36893 1.000E-05 03:53:51.960 1.500E-01 0.500 F -0.312 -0.307 -08° 23' 22.60" 1.000E-01 0.500 F 0.167 0.134 18.5 R 0.70 -0.14 o 691 0.69 Yes Yes
2017UL44 O C H 2017-10-29.36988 1.000E-05 03:53:51.050 1.500E-01 0.500 F -0.312 -0.054 -08° 23' 12.20" 1.000E-01 0.500 F 0.167 0.081 19.1 R 0.70 0.47 o 691 0.20 Yes Yes
2017TF1 O C K 2017-10-29.37296 1.000E-05 05:00:52.020 1.500E-01 0.500 F -0.178 0.070 +03° 39' 54.50" 1.000E-01 0.500 F 0.001 0.284 o 691 0.60 Yes No
2017TF1 O C K 2017-10-29.38287 1.000E-05 05:00:52.750 1.500E-01 0.500 F -0.178 -0.265 +03° 40' 19.20" 1.000E-01 0.500 F 0.001 0.031 o 691 0.55 Yes No
2017TF1 O C K 2017-10-29.39278 1.000E-05 05:00:53.500 1.500E-01 0.500 F -0.178 -0.160 +03° 40' 44.50" 1.000E-01 0.500 F 0.001 0.429 o 691 0.94 Yes No
2007DM41 O C H 2017-10-29.40509 1.000E-05 02:29:48.830 1.500E-01 0.500 F -0.176 -0.059 +23° 52' 17.80" 1.000E-01 0.500 F 0.253 0.502 18.9 R 0.70 0.09 o 691 1.02 Yes Yes
2007DM41 O C H 2017-10-29.40614 1.000E-05 02:29:48.430 1.500E-01 0.500 F -0.176 -0.271 +23° 52' 14.90" 1.000E-01 0.500 F 0.253 0.104 18.5 R 0.70 -0.31 o 691 0.58 Yes Yes
2017SE19 O C K 2017-10-29.41283 1.000E-05 07:18:16.540 1.500E-01 0.500 F -0.168 0.078 +10° 50' 40.10" 1.000E-01 0.500 F 0.056 0.002 o 691 0.16 Yes No
2017SE19 O C K 2017-10-29.41524 1.000E-05 07:18:17.270 1.500E-01 0.500 F -0.168 0.030 +10° 50' 40.20" 1.000E-01 0.500 F 0.056 0.035 o 691 0.09 Yes No
2017SE19 O C K 2017-10-29.41765 1.000E-05 07:18:18.020 1.500E-01 0.500 F -0.168 0.277 +10° 50' 40.30" 1.000E-01 0.500 F 0.056 0.068 o 691 0.57 Yes No
2011BM24 O C 2017-10-29.43976 1.000E-05 09:20:10.460 1.500E-01 0.500 F 0.157 -0.231 +30° 12' 23.30" 1.000E-01 0.500 F 0.331 0.052 20.4 V 0.70 -0.16 o 691 0.49 Yes Yes
2011BM24 O C 2017-10-29.44372 1.000E-05 09:20:11.400 1.500E-01 0.500 F 0.157 -0.531 +30° 12' 27.20" 1.000E-01 0.500 F 0.331 -0.779 20.5 V 0.70 -0.06 o 691 1.92 Yes Yes
2011BM24 O C 2017-10-29.44769 1.000E-05 09:20:12.390 1.500E-01 0.500 F 0.157 -0.211 +30° 12' 32.80" 1.000E-01 0.500 F 0.331 0.080 20.6 V 0.70 0.04 o 691 0.46 Yes Yes
1994AH2 O C 2017-10-29.49058 1.000E-05 03:33:00.020 1.500E-01 0.500 F -0.029 -0.361 +06° 00' 42.30" 1.000E-01 0.500 F 0.317 -0.166 o 691 0.80 Yes No
2017UC52 O C K 2017-10-29.49058 1.000E-05 03:32:46.040 1.500E-01 0.500 F -0.144 0.476 +05° 32' 49.90" 1.000E-01 0.500 F 0.281 -0.250 o 691 1.16 Yes No
1994AH2 O C 2017-10-29.49922 1.000E-05 03:32:59.490 1.500E-01 0.500 F -0.029 -0.162 +06° 00' 38.60" 1.000E-01 0.500 F 0.317 -0.053 o 691 0.34 Yes No
2017UC52 O C K 2017-10-29.49922 1.000E-05 03:32:47.660 1.500E-01 0.500 F -0.144 0.273 +05° 32' 47.60" 1.000E-01 0.500 F 0.281 -0.071 o 691 0.63 Yes No
1994AH2 O C 2017-10-29.50785 1.000E-05 03:32:58.930 1.500E-01 0.500 F -0.029 -0.429 +06° 00' 34.70" 1.000E-01 0.500 F 0.317 -0.143 o 691 0.90 Yes No
2017UC52 O C K 2017-10-29.50785 1.000E-05 03:32:49.280 1.500E-01 0.500 F -0.144 -0.015 +05° 32' 45.10" 1.000E-01 0.500 F 0.281 -0.087 o 691 0.19 Yes No
2006AD O C 2017-10-29.51934 1.000E-05 09:17:05.830 1.500E-01 0.500 F 0.348 -0.102 -28° 18' 56.70" 1.000E-01 0.500 F -0.087 0.042 19.6 V 0.70 0.24 o 691 0.22 Yes Yes
2006AD O C 2017-10-29.52092 1.000E-05 09:17:06.080 1.500E-01 0.500 F 0.348 -0.087 -28° 18' 57.00" 1.000E-01 0.500 F -0.087 0.197 19.4 V 0.70 0.04 o 691 0.44 Yes Yes
2006AD O C 2017-10-29.52251 1.000E-05 09:17:06.330 1.500E-01 0.500 F 0.348 -0.093 -28° 18' 57.70" 1.000E-01 0.500 F -0.087 -0.045 19.3 V 0.70 -0.06 o 691 0.21 Yes Yes
2017UW42 O C H 2017-10-30.09569 1.000E-05 01:26:40.790 1.500E-01 0.500 F -0.210 -0.223 +23° 27' 51.00" 1.000E-01 0.500 F 0.353 -0.178 19.5 R 0.70 0.23 o 691 0.57 Yes Yes
2017UW42 O C H 2017-10-30.09803 1.000E-05 01:26:40.680 1.500E-01 0.500 F -0.210 0.782 +23° 27' 50.00" 1.000E-01 0.500 F 0.353 -0.176 19.2 R 0.70 -0.07 o 691 1.61 Yes Yes
2017UW42 O C H 2017-10-30.10039 1.000E-05 01:26:40.430 1.500E-01 0.500 F -0.210 -0.117 +23° 27' 49.40" 1.000E-01 0.500 F 0.353 0.234 19.3 R 0.70 0.03 o 691 0.53 Yes Yes
2017TR1 O C 2017-10-30.10332 1.000E-05 23:38:30.090 1.500E-01 0.500 F -0.119 -0.052 +25° 39' 01.80" 1.000E-01 0.500 F 0.287 0.535 19.6 V 0.70 -0.09 o 691 1.09 Yes Yes
2013SC25 O C 2017-10-30.10332 1.000E-05 23:39:50.740 1.500E-01 0.500 F -0.119 0.027 +25° 14' 05.10" 1.000E-01 0.500 F 0.287 0.171 o 691 0.35 Yes No
2017TR1 O C 2017-10-30.11015 1.000E-05 23:38:30.260 1.500E-01 0.500 F -0.119 -0.023 +25° 39' 29.30" 1.000E-01 0.500 F 0.287 0.090 19.8 V 0.70 0.11 o 691 0.19 Yes Yes
2013SC25 O C 2017-10-30.11015 1.000E-05 23:39:49.540 1.500E-01 0.500 F -0.119 0.164 +25° 13' 55.60" 1.000E-01 0.500 F 0.287 0.006 o 691 0.33 Yes No
2017TR1 O C 2017-10-30.11698 1.000E-05 23:38:30.430 1.500E-01 0.500 F -0.119 0.028 +25° 39' 57.70" 1.000E-01 0.500 F 0.287 0.577 19.5 V 0.70 -0.19 o 691 1.17 Yes Yes
2013SC25 O C 2017-10-30.11698 1.000E-05 23:39:48.300 1.500E-01 0.500 F -0.119 -0.232 +25° 13' 46.00" 1.000E-01 0.500 F 0.287 -0.248 o 691 0.68 Yes No
2017UJ5 O C K 2017-10-30.12361 1.000E-05 00:53:52.450 1.500E-01 0.500 F -0.142 -0.233 +14° 59' 14.00" 1.000E-01 0.500 F 0.441 -0.350 o 691 0.89 Yes No
2017UJ5 O C K 2017-10-30.12946 1.000E-05 00:53:50.280 1.500E-01 0.500 F -0.203 -0.686 +15° 00' 33.50" 1.000E-01 0.500 F 0.392 0.009 o 691 1.44 Yes No
2017UJ5 O C K 2017-10-30.13530 1.000E-05 00:53:48.160 1.500E-01 0.500 F -0.203 -0.401 +15° 01' 52.60" 1.000E-01 0.500 F 0.392 0.114 o 691 0.88 Yes No
2017UX44 O C H 2017-10-30.17185 1.000E-05 03:40:54.940 1.500E-01 0.500 F -0.055 -0.160 +26° 26' 28.40" 1.000E-01 0.500 F 0.166 -0.097 o 691 0.38 Yes No
2017UX44 O C H 2017-10-30.17441 1.000E-05 03:40:54.780 1.500E-01 0.500 F -0.055 0.367 +26° 26' 29.30" 1.000E-01 0.500 F 0.166 -0.034 20.2 R 0.70 0.58 o 691 0.74 Yes Yes
2017UJ8 O C K 2017-10-30.23693 1.000E-05 02:40:05.430 1.500E-01 0.500 F -0.145 -2.522 +26° 11' 07.20" 1.000E-01 0.500 F 0.283 -0.029 o 691 4.76 No No
2017UJ8 O C K 2017-10-30.24827 1.000E-05 02:40:00.760 1.500E-01 0.500 F -0.145 -3.483 +26° 12' 54.90" 1.000E-01 0.500 F 0.283 -0.312 o 691 6.60 No No
2017UP44 O C H 2017-10-30.27576 1.000E-05 01:10:30.470 1.500E-01 0.500 F -0.203 -0.226 +22° 30' 45.30" 1.000E-01 0.500 F 0.297 0.371 18.3 R 0.70 0.30 o 691 0.88 Yes Yes
2017UP44 O C H 2017-10-30.27669 1.000E-05 01:10:31.090 1.500E-01 0.500 F -0.203 -0.040 +22° 30' 26.30" 1.000E-01 0.500 F 0.297 0.429 18.0 R 0.70 0.00 o 691 0.88 Yes Yes
2017UP44 O C H 2017-10-30.27761 1.000E-05 01:10:31.670 1.500E-01 0.500 F -0.203 -0.318 +22° 30' 07.10" 1.000E-01 0.500 F 0.297 0.083 18.4 R 0.70 0.41 o 691 0.67 Yes Yes
2017SF14 O C K 2017-10-30.30684 1.000E-05 03:30:22.900 1.500E-01 0.500 F -0.002 -0.305 +05° 19' 40.50" 1.000E-01 0.500 F 0.327 0.228 o 691 0.77 Yes No
2017SF14 O C K 2017-10-30.31253 1.000E-05 03:30:22.220 1.500E-01 0.500 F -0.002 -0.291 +05° 19' 52.70" 1.000E-01 0.500 F 0.327 0.518 o 691 1.20 Yes No
2017SF14 O C K 2017-10-30.31823 1.000E-05 03:30:21.530 1.500E-01 0.500 F -0.002 -0.389 +05° 20' 04.70" 1.000E-01 0.500 F 0.327 0.598 o 691 1.44 Yes No
2017UV5 O C K 2017-10-30.32418 1.000E-05 02:43:38.950 1.500E-01 0.500 F -0.128 -0.183 +11° 54' 19.20" 1.000E-01 0.500 F 0.217 0.089 o 691 0.41 Yes No
2017UV5 O C K 2017-10-30.32828 1.000E-05 02:43:38.560 1.500E-01 0.500 F -0.128 -0.314 +11° 54' 27.70" 1.000E-01 0.500 F 0.217 0.253 o 691 0.83 Yes No
2017UV5 O C K 2017-10-30.33656 1.000E-05 02:43:37.840 1.500E-01 0.500 F -0.128 0.410 +11° 54' 44.40" 1.000E-01 0.500 F 0.217 0.127 o 691 0.87 Yes No
2017SV20 O C H 2017-10-30.34235 1.000E-05 04:22:43.360 1.500E-01 0.500 F -0.145 -0.121 -23° 41' 49.20" 1.000E-01 0.500 F 0.250 -0.620 21.1 R 0.70 0.67 o 691 1.27 Yes Yes
2017SV20 O C H 2017-10-30.34425 1.000E-05 04:22:43.200 1.500E-01 0.500 F -0.145 0.316 -23° 41' 49.40" 1.000E-01 0.500 F 0.250 0.103 21.3 R 0.70 0.87 o 691 0.66 Yes Yes
2017SV20 O C H 2017-10-30.34616 1.000E-05 04:22:42.980 1.500E-01 0.500 F -0.145 -0.057 -23° 41' 50.40" 1.000E-01 0.500 F 0.250 0.029 o 691 0.13 Yes No
2017UC O C K 2017-10-30.34922 1.000E-05 03:01:25.390 1.500E-01 0.500 F -0.238 1.244 +23° 59' 16.20" 1.000E-01 0.500 F 0.306 0.083 o 691 2.64 Yes No
2017UC O C K 2017-10-30.36082 1.000E-05 03:01:29.780 1.500E-01 0.500 F -0.238 2.458 +23° 59' 35.80" 1.000E-01 0.500 F 0.306 2.621 o 691 6.97 No No
2017UF5 O C H 2017-10-30.41955 1.000E-05 03:03:24.830 1.500E-01 0.500 F -0.194 0.122 +14° 06' 14.30" 1.000E-01 0.500 F 0.282 -0.287 21.3 R 0.70 0.70 o 691 0.64 Yes Yes
2017UF5 O C H 2017-10-30.42157 1.000E-05 03:03:24.730 1.500E-01 0.500 F -0.194 0.786 +14° 06' 12.70" 1.000E-01 0.500 F 0.282 -0.242 21.3 R 0.70 0.70 o 691 1.76 Yes Yes
2017UF5 O C H 2017-10-30.42358 1.000E-05 03:03:24.470 1.500E-01 0.500 F -0.194 -0.889 +14° 06' 11.40" 1.000E-01 0.500 F 0.282 0.095 21.7 R 0.70 1.10 o 691 1.93 Yes Yes
2017US1 O C K 2017-10-30.47598 1.000E-05 03:35:32.620 1.500E-01 0.500 F -0.332 0.105 +15° 19' 31.20" 1.000E-01 0.500 F 0.163 -0.167 o 691 0.43 Yes No
2017US1 O C K 2017-10-30.47930 1.000E-05 03:35:31.810 1.500E-01 0.500 F -0.332 -0.343 +15° 19' 50.70" 1.000E-01 0.500 F 0.163 -0.222 o 691 0.87 Yes No
2017US1 O C K 2017-10-30.48260 1.000E-05 03:35:31.030 1.500E-01 0.500 F -0.332 -0.438 +15° 20' 10.00" 1.000E-01 0.500 F 0.163 -0.356 o 691 1.21 Yes No
2017UB5 O C H 2017-10-30.48719 1.000E-05 03:19:15.430 1.500E-01 0.500 F -0.243 0.142 +24° 55' 48.80" 1.000E-01 0.500 F 0.216 0.303 21.0 R 0.70 0.34 o 691 0.67 Yes Yes
2017UB5 O C H 2017-10-30.49083 1.000E-05 03:19:15.450 1.500E-01 0.500 F -0.243 0.383 +24° 55' 49.80" 1.000E-01 0.500 F 0.216 0.094 21.3 R 0.70 0.64 o 691 0.80 Yes Yes
2017UB5 O C H 2017-10-30.49448 1.000E-05 03:19:15.450 1.500E-01 0.500 F -0.243 0.344 +24° 55' 51.10" 1.000E-01 0.500 F 0.216 0.185 21.3 R 0.70 0.64 o 691 0.79 Yes Yes
2017UX4 O C K 2017-10-30.49756 1.000E-05 04:40:41.490 1.500E-01 0.500 F -0.159 -0.368 +01° 34' 54.50" 1.000E-01 0.500 F 0.209 -0.179 o 691 0.85 Yes No
2017UX4 O C K 2017-10-30.50173 1.000E-05 04:40:39.500 1.500E-01 0.500 F -0.159 -0.006 +01° 35' 16.70" 1.000E-01 0.500 F 0.209 0.868 o 691 1.79 Yes No
2017UX4 O C K 2017-10-30.50590 1.000E-05 04:40:37.340 1.500E-01 0.500 F -0.159 -2.207 +01° 35' 37.20" 1.000E-01 0.500 F 0.209 0.217 o 691 4.14 No No
2017UV4 O C 2017-10-30.51417 1.000E-05 06:07:53.240 1.500E-01 0.500 F -0.066 -0.400 -22° 54' 53.70" 1.000E-01 0.500 F -0.012 0.224 19.7 V 0.70 0.05 o 691 0.97 Yes Yes
2017UV4 O C 2017-10-30.51631 1.000E-05 06:07:54.180 1.500E-01 0.500 F -0.066 -0.001 -22° 55' 03.20" 1.000E-01 0.500 F -0.012 -0.080 19.6 V 0.70 -0.05 o 691 0.17 Yes Yes
2017UV4 O C 2017-10-30.51847 1.000E-05 06:07:55.100 1.500E-01 0.500 F -0.066 0.000 -22° 55' 12.40" 1.000E-01 0.500 F -0.012 0.000 19.7 V 0.70 0.05 o 691 0.00 Yes Yes
2006AD O C H 2017-10-30.52173 1.000E-05 09:19:47.540 1.500E-01 0.500 F 0.295 -0.026 -28° 23' 33.20" 1.000E-01 0.500 F -0.041 -0.123 20.3 R 0.70 1.36 o 691 0.25 Yes Yes
2006AD O C H 2017-10-30.52331 1.000E-05 09:19:47.820 1.500E-01 0.500 F 0.295 0.343 -28° 23' 33.80" 1.000E-01 0.500 F -0.041 -0.281 19.8 R 0.70 0.86 o 691 0.89 Yes Yes
2017QL33 O C H 2017-11-10.06998 1.000E-05 21:10:11.710 1.500E-01 0.500 F 0.067 -0.115 -11° 18' 01.80" 1.000E-01 0.500 F 0.277 0.043 20.2 R 0.70 -0.14 o 691 0.25 Yes Yes
2017QL33 O C H 2017-11-10.08570 1.000E-05 21:10:11.970 1.500E-01 0.500 F 0.067 -0.074 -11° 17' 48.80" 1.000E-01 0.500 F 0.277 -0.166 20.7 R 0.70 0.36 o 691 0.36 Yes Yes
2017QL33 O C H 2017-11-10.09963 1.000E-05 21:10:12.240 1.500E-01 0.500 F 0.067 0.488 -11° 17' 36.80" 1.000E-01 0.500 F 0.277 0.068 20.4 R 0.70 0.06 o 691 0.99 Yes Yes
2014TW57 O C 2017-11-10.11613 1.000E-05 22:19:15.960 1.500E-01 0.500 F -0.099 -0.254 +00° 11' 29.60" 1.000E-01 0.500 F 0.376 -0.248 21.3 V 0.70 -0.72 o 691 0.71 Yes Yes
2014TW57 O C 2017-11-10.13241 1.000E-05 22:19:15.400 1.500E-01 0.500 F -0.099 -0.242 +00° 11' 19.30" 1.000E-01 0.500 F 0.376 -0.423 21.0 V 0.70 -1.02 o 691 0.98 Yes Yes
2014TW57 O C 2017-11-10.14863 1.000E-05 22:19:14.840 1.500E-01 0.500 F -0.099 -0.287 +00° 11' 09.80" 1.000E-01 0.500 F 0.376 0.162 21.0 V 0.70 -1.02 o 691 0.66 Yes Yes
2017TX3 O C 2017-11-10.16609 1.000E-05 23:50:33.350 1.500E-01 0.500 F -0.129 -0.201 +00° 54' 38.30" 1.000E-01 0.500 F 0.377 0.218 o 691 0.60 Yes No
1992TB O C 2017-11-10.17124 1.000E-05 00:16:27.300 1.500E-01 0.500 F -0.271 -0.435 -13° 41' 30.00" 1.000E-01 0.500 F 0.170 0.094 o 691 0.89 Yes No
2017SL14 O C K 2017-11-10.17124 1.000E-05 00:15:38.360 1.500E-01 0.500 F -0.190 0.054 -13° 20' 10.50" 1.000E-01 0.500 F 0.194 0.146 21.9 R 0.70 0.49 o 691 0.32 Yes Yes
2017TX3 O C 2017-11-10.18542 1.000E-05 23:50:34.040 1.500E-01 0.500 F -0.129 -0.272 +00° 55' 16.40" 1.000E-01 0.500 F 0.377 -0.122 o 691 0.60 Yes No
2017SL14 O C K 2017-11-10.19059 1.000E-05 00:15:37.680 1.500E-01 0.500 F -0.190 0.247 -13° 20' 18.50" 1.000E-01 0.500 F 0.194 0.482 21.7 R 0.70 0.29 o 691 1.11 Yes Yes
1992TB O C 2017-11-10.19059 1.000E-05 00:16:26.450 1.500E-01 0.500 F -0.271 -0.365 -13° 41' 42.20" 1.000E-01 0.500 F 0.170 -0.010 o 691 0.73 Yes No
2017TX3 O C 2017-11-10.20484 1.000E-05 23:50:34.750 1.500E-01 0.500 F -0.129 -0.155 +00° 55' 55.00" 1.000E-01 0.500 F 0.377 -0.133 o 691 0.41 Yes No
1992TB O C 2017-11-10.21000 1.000E-05 00:16:25.620 1.500E-01 0.500 F -0.271 0.016 -13° 41' 54.20" 1.000E-01 0.500 F 0.170 0.089 o 691 0.18 Yes No
2017SL14 O C K 2017-11-10.21000 1.000E-05 00:15:36.970 1.500E-01 0.500 F -0.190 -0.008 -13° 20' 26.90" 1.000E-01 0.500 F 0.194 0.316 21.5 R 0.70 0.09 o 691 0.64 Yes Yes
2017UO O C H 2017-11-10.22144 1.000E-05 01:19:53.080 1.500E-01 0.500 F -0.333 0.219 +16° 11' 17.20" 1.000E-01 0.500 F 0.211 -0.309 o 691 0.77 Yes No
2017RK1 O C 2017-11-10.22541 1.000E-05 02:24:30.190 1.500E-01 0.500 F -0.275 -0.112 -07° 43' 04.10" 1.000E-01 0.500 F 0.204 -0.254 o 691 0.56 Yes No
2017UO O C H 2017-11-10.23704 1.000E-05 01:19:51.830 1.500E-01 0.500 F -0.333 0.360 +16° 10' 51.70" 1.000E-01 0.500 F 0.211 -0.185 o 691 0.82 Yes No
2017RK1 O C 2017-11-10.24138 1.000E-05 02:24:30.380 1.500E-01 0.500 F -0.275 -0.103 -07° 43' 05.00" 1.000E-01 0.500 F 0.204 -0.138 o 691 0.35 Yes No
2017RK1 O C 2017-11-10.25819 1.000E-05 02:24:30.570 1.500E-01 0.500 F -0.275 -0.206 -07° 43' 06.10" 1.000E-01 0.500 F 0.204 -0.205 o 691 0.58 Yes No
2017UV5 O C 2017-11-10.27725 1.000E-05 02:29:15.090 1.500E-01 0.500 F -0.240 -0.190 +17° 27' 38.40" 1.000E-01 0.500 F 0.308 -0.339 20.9 V 0.70 -0.15 o 691 0.79 Yes Yes
2017UV5 O C 2017-11-10.29356 1.000E-05 02:29:13.810 1.500E-01 0.500 F -0.240 -0.587 +17° 28' 05.00" 1.000E-01 0.500 F 0.308 0.180 20.5 V 0.70 -0.55 o 691 1.25 Yes Yes
2017UV5 O C 2017-11-10.31059 1.000E-05 02:29:12.530 1.500E-01 0.500 F -0.240 -0.223 +17° 28' 31.90" 1.000E-01 0.500 F 0.308 -0.085 21.0 V 0.70 -0.05 o 691 0.48 Yes Yes
2017SS17 O C 2017-11-10.33715 1.000E-05 03:24:38.220 1.500E-01 0.500 F -0.191 -0.003 +10° 42' 36.70" 1.000E-01 0.500 F 0.205 -0.421 20.7 V 0.70 -0.16 o 691 0.86 Yes Yes
2017SV20 O C H 2017-11-10.34402 1.000E-05 04:02:26.470 1.500E-01 0.500 F -0.244 0.036 -24° 32' 33.50" 1.000E-01 0.500 F 0.132 0.575 o 691 1.15 Yes No
2017SS17 O C 2017-11-10.36136 1.000E-05 03:24:41.960 1.500E-01 0.500 F -0.191 -0.353 +10° 42' 26.40" 1.000E-01 0.500 F 0.205 -0.234 20.4 V 0.70 -0.46 o 691 0.86 Yes Yes
2017SV20 O C H 2017-11-10.36800 1.000E-05 04:02:23.480 1.500E-01 0.500 F -0.244 0.296 -24° 32' 34.90" 1.000E-01 0.500 F 0.132 0.361 o 691 0.93 Yes No
2017SS17 O C 2017-11-10.38460 1.000E-05 03:24:45.600 1.500E-01 0.500 F -0.191 -0.192 +10° 42' 16.20" 1.000E-01 0.500 F 0.205 -0.195 20.8 V 0.70 -0.07 o 691 0.55 Yes Yes
2017SV20 O C H 2017-11-10.39106 1.000E-05 04:02:20.570 1.500E-01 0.500 F -0.244 0.051 -24° 32' 35.40" 1.000E-01 0.500 F 0.132 0.899 o 691 1.80 Yes No
2017UD45 O C 2017-11-10.40849 1.000E-05 04:14:58.870 1.500E-01 0.500 F -0.283 0.415 -08° 30' 28.20" 1.000E-01 0.500 F 0.154 0.197 21.4 V 0.70 -0.30 o 691 0.93 Yes Yes
2017UD45 O C 2017-11-10.42548 1.000E-05 04:14:57.490 1.500E-01 0.500 F -0.283 0.116 -08° 30' 50.10" 1.000E-01 0.500 F 0.154 -0.292 21.2 V 0.70 -0.50 o 691 0.64 Yes Yes
2017UD45 O C 2017-11-10.44244 1.000E-05 04:14:56.120 1.500E-01 0.500 F -0.283 -0.113 -08° 31' 12.10" 1.000E-01 0.500 F 0.154 -0.945 21.1 V 0.70 -0.60 o 691 1.94 Yes Yes
2017QL33 O C H 2017-11-11.07136 1.000E-05 21:10:43.710 1.500E-01 0.500 F 0.067 0.006 -11° 03' 51.70" 1.000E-01 0.500 F 0.277 0.074 o 691 0.15 Yes No

[1-200] [201-400] [401-600] [601-800] [801-1000] [1001-1200] [1201-1400] [1401-1600] [1601-1800] [1801-2000] [2001-2200] [2201-2400] [2401-2600] [2601-2800] [2801-3000] [3001-3200] [3201-3400] [3401-3600] [3601-3800] [3801-4000] [4001-4200] [4201-4400] [4401-4600] [4601-4800] [4801-5000] [5001-5200] [5201-5400] [5401-5600] [5601-5800] [5801-6000] [6001-6200] [6201-6400] [6401-6600] [6601-6800] [6801-7000] [7001-7200] [7201-7400] [7401-7600] [7601-7800] [7801-8000] [8001-8200] [8201-8400] [8401-8600] [8601-8800] [8801-9000] [9001-9200] [9201-9400] [9401-9600] [9601-9800] [9801-10000] [10001-10200] [10201-10400] [10401-10600] [10601-10800] [10801-11000] [11001-11200] [11201-11400] [11401-11600] [11601-11800] [11801-12000] [12001-12200] [12201-12400] [12401-12600] [12601-12800] [12801-13000] [13001-13200] [13201-13400] [13401-13600] [13601-13800] [13801-14000] [14001-14200] [14201-14400] [14401-14600] [14601-14800] [14801-15000] [15001-15200] [15201-15400] [15401-15600] [15601-15800] [15801-16000] [16001-16200] [16201-16400] [16401-16600] [16601-16800] [16801-17000] [17001-17200] [17201-17400] [17401-17600] [17601-17800] [17801-18000] [18001-18200] [18201-18400] [18401-18600] [18601-18800] [18801-19000] [19001-19200] [19201-19400] [19401-19600] [19601-19800] [19801-20000] [20001-20200] [20201-20400] [20401-20600] [20601-20800] [20801-21000] [21001-21200] [21201-21400] [21401-21600] [21601-21800] [21801-22000] [22001-22200] [22201-22400] [22401-22600] [22601-22800] [22801-23000] [23001-23200] [23201-23400] [23401-23600] [23601-23800] [23801-24000] [24001-24200] [24201-24400] [24401-24600] [24601-24800] [24801-25000] [25001-25200] [25201-25400] [25401-25600] [25601-25800] [25801-26000] [26001-26200] [26201-26400] [26401-26600] [26601-26800] [26801-27000] [27001-27200] [27201-27400] [27401-27600] [27601-27800] [27801-28000] [28001-28200] [28201-28400] [28401-28600] [28601-28800] [28801-29000] [29001-29200] [29201-29400] [29401-29600] [29601-29800] [29801-30000] [30001-30200] [30201-30400] [30401-30600] [30601-30800] [30801-31000] [31001-31200] [31201-31400] [31401-31600] [31601-31800] [31801-32000] [32001-32200] [32201-32400] [32401-32600] [32601-32800] [32801-33000] [33001-33200] [33201-33400] [33401-33600] [33601-33800] [33801-34000] [34001-34200] [34201-34400] [34401-34600] [34601-34800] [34801-35000] [35001-35200] [35201-35400] [35401-35600] [35601-35800] [35801-36000] [36001-36200] [36201-36400] [36401-36600] [36601-36800] [36801-37000] [37001-37200] [37201-37400] [37401-37600] [37601-37800] [37801-38000] [38001-38200] [38201-38400] [38401-38600] [38601-38800] [38801-39000] [39001-39200] [39201-39400] [39401-39600] [39601-39800] [39801-40000] [40001-40200] [40201-40400] [40401-40600] [40601-40800] [40801-41000] [41001-41200] [41201-41400] [41401-41600] [41601-41800] [41801-42000] [42001-42200] [42201-42400] [42401-42600] [42601-42800] [42801-43000] [43001-43200] [43201-43400] [43401-43600] [43601-43800] [43801-44000] [44001-44200] [44201-44400] [44401-44600] [44601-44800] [44801-45000] [45001-45200] [45201-45400] [45401-45600] [45601-45800] [45801-46000] [46001-46200] [46201-46400] [46401-46600] [46601-46800] [46801-47000] [47001-47200] [47201-47400] [47401-47600] [47601-47800] [47801-48000] [48001-48200] [48201-48400] [48401-48600] [48601-48800] [48801-49000] [49001-49200] [49201-49400] [49401-49600] [49601-49800] [49801-50000] [50001-50200] [50201-50388]